Time;durP1;ratioP1;P1;durP2;ratioP2;P2;SDS_P1;SDS_P2;PMS_P1;PMS_P2;Temp;Humidity;BMP_temperature;BMP_pressure;BME280_temperature;BME280_humidity;BME280_pressure;Samples;Min_cycle;Max_cycle;Signal;HPM_P1;HPM_P2
2022/06/04 00:02:14;;;;;;;7.30;5.20;;;;;;;12.27;100.00;100369.47;1714866;83;21157;-57
2022/06/04 00:04:40;;;;;;;;;;;;;;;12.35;100.00;100369.51;1728301;83;21506;-58
2022/06/04 00:07:07;;;;;;;7.53;4.85;;;;;;;12.40;100.00;100372.23;1729803;82;20106;-57
2022/06/04 00:09:35;;;;;;;7.62;5.87;;;;;;;12.31;100.00;100367.86;1696498;83;20948;-58
2022/06/04 00:17:33;;;;;;;9.58;5.25;;;;;;;12.36;100.00;100362.97;1737361;80;21103;-58
2022/06/04 00:20:00;;;;;;;;;;;;;;;12.41;100.00;100366.52;1746500;80;21561;-58
2022/06/04 00:22:26;;;;;;;5.33;4.45;;;;;;;12.49;100.00;100366.55;1721302;82;20115;-57
2022/06/04 00:24:53;;;;;;;;;;;;;;;12.51;100.00;100361.63;1750156;82;21071;-58
2022/06/04 00:27:20;;;;;;;7.80;5.10;;;;;;;12.52;100.00;100354.25;1750455;81;20125;-57
2022/06/04 00:29:48;;;;;;;7.22;5.83;;;;;;;12.41;100.00;100358.87;1728135;81;21015;-57
2022/06/04 00:32:16;;;;;;;;;;;;;;;12.36;100.00;100350.11;1681348;83;21154;-58
2022/06/04 00:34:42;;;;;;;9.10;5.22;;;;;;;12.35;100.00;100353.95;1720354;82;20156;-58
2022/06/04 00:37:09;;;;;;;8.53;5.80;;;;;;;12.35;100.00;100347.12;1713727;82;21121;-58
2022/06/04 00:39:36;;;;;;;6.42;5.28;;;;;;;12.41;100.00;100354.77;1674144;83;21047;-58
2022/06/04 00:42:13;;;;;;;10.78;7.03;;;;;;;12.42;100.00;100345.50;1677901;83;21039;-58
2022/06/04 00:45:19;;;;;;;8.70;5.87;;;;;;;12.38;100.00;100345.22;1683016;85;21578;-57
2022/06/04 00:47:45;;;;;;;7.33;5.92;;;;;;;12.37;100.00;100349.56;1684977;83;21603;-58
2022/06/04 00:50:12;;;;;;;;;;;;;;;12.32;100.00;100350.39;1682356;83;21059;-59
2022/06/04 00:52:39;;;;;;;7.28;5.67;;;;;;;12.32;100.00;100353.13;1697692;82;20395;-58
2022/06/04 00:55:07;;;;;;;7.75;5.37;;;;;;;12.29;100.00;100348.17;1710669;83;20995;-58
2022/06/04 00:57:48;;;;;;;7.37;5.62;;;;;;;12.31;100.00;100341.09;1745186;80;21051;-58
2022/06/04 01:00:30;;;;;;;7.30;6.55;;;;;;;12.35;100.00;100343.03;1758357;80;21027;-58
2022/06/04 01:03:17;;;;;;;7.22;6.03;;;;;;;12.37;100.00;100335.91;1719213;81;21106;-58
2022/06/04 01:06:03;;;;;;;8.65;7.12;;;;;;;12.37;100.00;100344.11;1743549;80;20968;-59
2022/06/04 01:08:55;;;;;;;6.92;6.03;;;;;;;12.38;100.00;100339.76;1731853;80;21046;-58
2022/06/04 01:11:32;;;;;;;8.93;5.85;;;;;;;12.39;100.00;100340.04;1743554;80;21083;-58
2022/06/04 01:14:17;;;;;;;7.37;6.45;;;;;;;12.37;100.00;100338.64;1750160;80;21046;-58
2022/06/04 01:16:58;;;;;;;7.87;6.10;;;;;;;12.33;100.00;100341.63;1745012;80;21079;-58
2022/06/04 01:19:53;;;;;;;11.10;7.15;;;;;;;12.31;100.00;100341.09;1691588;83;21019;-59
2022/06/04 01:22:49;;;;;;;7.83;6.25;;;;;;;12.27;100.00;100343.54;1739572;80;21105;-58
2022/06/04 01:25:39;;;;;;;7.12;6.30;;;;;;;12.20;100.00;100344.34;1743911;80;21500;-58
2022/06/04 01:28:08;;;;;;;9.53;6.97;;;;;;;12.20;100.00;100342.97;1755432;80;21048;-58
2022/06/04 01:30:48;;;;;;;12.40;7.28;;;;;;;12.26;100.00;100343.80;1750318;81;21605;-59
2022/06/04 01:33:24;;;;;;;10.35;6.67;;;;;;;12.28;100.00;100340.27;1749383;80;21094;-58
2022/06/04 01:36:06;;;;;;;8.25;6.17;;;;;;;12.30;100.00;100343.00;1752914;80;21490;-59
2022/06/04 01:38:44;;;;;;;8.20;6.97;;;;;;;12.26;100.00;100335.06;1759341;80;21879;-59
2022/06/04 01:41:22;;;;;;;7.83;6.67;;;;;;;12.16;100.00;100347.31;1753287;80;20991;-58
2022/06/04 01:43:55;;;;;;;8.13;6.83;;;;;;;12.12;100.00;100335.83;1744149;80;21030;-59
2022/06/04 01:46:40;;;;;;;10.32;6.22;;;;;;;12.12;100.00;100336.66;1743650;80;21514;-59
2022/06/04 01:49:20;;;;;;;11.80;6.83;;;;;;;12.14;100.00;100330.41;1754443;81;21074;-58
2022/06/04 01:51:47;;;;;;;10.75;6.70;;;;;;;12.17;100.00;100324.95;1753622;80;21130;-58
2022/06/04 01:54:19;;;;;;;8.43;6.78;;;;;;;12.22;100.00;100320.88;1750486;80;21018;-58
2022/06/04 01:56:49;;;;;;;8.85;6.97;;;;;;;12.26;100.00;100317.32;1691101;82;21047;-58
2022/06/04 01:59:26;;;;;;;11.03;6.70;;;;;;;12.23;100.00;100323.86;1755828;80;21070;-58
2022/06/04 02:01:52;;;;;;;9.15;6.12;;;;;;;12.16;100.00;100328.75;1745084;81;21047;-58
2022/06/04 02:04:24;;;;;;;8.23;5.78;;;;;;;12.13;100.00;100332.84;1739656;80;21051;-58
2022/06/04 02:09:42;;;;;;;8.13;6.47;;;;;;;12.25;100.00;100329.89;1741177;81;21501;-59
2022/06/04 02:12:10;;;;;;;8.38;6.92;;;;;;;12.30;100.00;100327.16;1748826;81;21019;-58
2022/06/04 02:14:38;;;;;;;8.73;7.10;;;;;;;12.37;100.00;100323.63;1745183;80;21031;-58
2022/06/04 02:17:07;;;;;;;8.55;7.50;;;;;;;12.44;100.00;100329.66;1754369;81;21457;-58
2022/06/04 02:19:34;;;;;;;7.92;7.08;;;;;;;12.47;100.00;100331.84;1747286;81;21011;-58
2022/06/04 02:22:02;;;;;;;10.75;8.08;;;;;;;12.49;100.00;100328.31;1748641;81;21063;-57
2022/06/04 02:24:29;;;;;;;9.15;7.08;;;;;;;12.55;100.00;100335.96;1716110;81;21506;-58
2022/06/04 02:26:57;;;;;;;9.85;6.37;;;;;;;12.61;100.00;100334.33;1733782;82;21584;-58
2022/06/04 02:29:23;;;;;;;;;;;;;;;12.66;100.00;100340.36;1745773;81;21459;-59
2022/06/04 02:32:01;;;;;;;8.43;7.40;;;;;;;12.67;100.00;100341.47;1760299;81;20107;-58
2022/06/04 02:34:41;;;;;;;9.93;7.35;;;;;;;12.64;100.00;100345.28;1730033;81;21511;-58
2022/06/04 02:37:28;;;;;;;10.72;6.90;;;;;;;12.62;100.00;100354.27;1757370;81;21063;-59
2022/06/04 02:40:12;;;;;;;9.50;6.97;;;;;;;12.58;100.00;100351.80;1763657;81;21015;-59
2022/06/04 02:42:56;;;;;;;7.95;6.92;;;;;;;12.59;100.00;100354.27;1752632;81;21058;-58
2022/06/04 02:45:37;;;;;;;8.63;6.47;;;;;;;12.67;100.00;100363.86;1756089;81;21023;-58
2022/06/04 02:48:09;;;;;;;9.45;5.90;;;;;;;12.76;100.00;100354.84;1762940;81;21063;-58
2022/06/04 02:50:41;;;;;;;10.95;6.67;;;;;;;12.90;100.00;100360.59;1758534;81;20959;-59
2022/06/04 02:53:08;;;;;;;9.68;6.35;;;;;;;13.04;100.00;100356.23;1753030;81;21015;-58
2022/06/04 02:55:43;;;;;;;10.20;6.55;;;;;;;13.17;100.00;100357.66;1746801;81;21451;-59
2022/06/04 02:58:13;;;;;;;9.98;6.50;;;;;;;13.26;100.00;100366.39;1685119;84;21027;-58
2022/06/04 03:00:39;;;;;;;8.53;6.05;;;;;;;13.39;100.00;100371.30;1752406;81;20928;-58
2022/06/04 03:03:12;;;;;;;7.40;6.22;;;;;;;13.54;100.00;100362.25;1724951;81;21105;-59
2022/06/04 03:05:39;;;;;;;7.92;6.20;;;;;;;13.68;100.00;100362.50;1723043;82;21413;-58
2022/06/04 03:08:07;;;;;;;8.05;6.25;;;;;;;13.83;100.00;100363.84;1738159;81;21632;-58
2022/06/04 03:10:35;;;;;;;8.23;6.00;;;;;;;13.94;100.00;100359.44;1757431;81;21047;-58
2022/06/04 03:13:03;;;;;;;11.03;5.95;;;;;;;14.05;100.00;100361.59;1740220;81;21142;-58
2022/06/04 03:15:29;;;;;;;9.95;6.12;;;;;;;14.17;100.00;100355.80;1750270;81;21023;-59
2022/06/04 03:17:55;;;;;;;;;;;;;;;14.31;100.00;100363.09;1762062;80;21075;-59
2022/06/04 03:20:25;;;;;;;8.85;5.87;;;;;;;14.50;100.00;100353.73;1755398;81;20378;-58
2022/06/04 03:22:52;;;;;;;7.17;5.25;;;;;;;14.63;100.00;100352.30;1759786;81;21071;-59
2022/06/04 03:25:18;;;;;;;;;;;;;;;14.76;100.00;100347.55;1761138;81;21007;-59
2022/06/04 03:27:46;;;;;;;8.18;5.15;;;;;;;14.84;100.00;100339.52;1748754;81;20143;-58
2022/06/04 03:32:34;;;;;;;8.33;5.78;;;;;;;15.01;100.00;100319.95;1831853;77;22749;-57
2022/06/04 03:35:01;;;;;;;7.70;5.37;;;;;;;15.01;100.00;100325.98;1828307;77;21079;-57
2022/06/04 03:37:27;;;;;;;7.95;5.10;;;;;;;15.00;100.00;100329.27;1828092;77;21052;-57
2022/06/04 03:39:54;;;;;;;7.70;5.25;;;;;;;14.90;100.00;100331.55;1816345;77;21006;-58
2022/06/04 03:42:21;;;;;;;6.35;5.40;;;;;;;14.83;100.00;100334.34;1826975;78;21070;-57
2022/06/04 03:44:48;;;;;;;6.65;4.97;;;;;;;14.87;100.00;100340.90;1827831;78;21044;-57
2022/06/04 03:47:16;;;;;;;7.28;4.95;;;;;;;15.03;100.00;100344.32;1827260;77;21020;-57
2022/06/04 03:49:44;;;;;;;6.72;5.05;;;;;;;15.19;100.00;100343.94;1828027;77;21012;-57
2022/06/04 03:52:13;;;;;;;6.03;4.87;;;;;;;15.31;100.00;100340.24;1827494;78;21093;-58
2022/06/04 03:54:55;;;;;;;7.28;4.53;;;;;;;15.37;100.00;100348.68;1828484;78;21005;-57
2022/06/04 03:57:52;;;;;;;7.08;5.00;;;;;;;15.38;100.00;100351.70;1828297;77;21037;-58
2022/06/04 04:00:31;;;;;;;8.15;4.92;;;;;;;15.45;100.00;100341.20;1821825;77;20985;-57
2022/06/04 04:03:03;;;;;;;6.25;4.92;;;;;;;15.55;100.00;100342.27;1827290;78;21002;-57
2022/06/04 04:05:41;;;;;;;6.95;5.78;;;;;;;15.66;100.00;100341.05;1828976;77;20970;-57
2022/06/04 04:08:08;;;;;;;7.80;5.42;;;;;;;15.80;100.00;100344.16;1833352;77;21596;-57
2022/06/04 04:10:36;;;;;;;6.92;5.22;;;;;;;16.03;100.00;100342.53;1829763;77;20944;-57
2022/06/04 04:13:03;;;;;;;6.67;5.22;;;;;;;16.32;100.00;100350.69;1810864;78;21059;-59
2022/06/04 04:15:30;;;;;;;7.60;4.97;;;;;;;16.74;100.00;100339.68;1830096;77;20983;-61
2022/06/04 04:17:56;;;;;;;4.55;4.05;;;;;;;17.21;100.00;100329.03;1852302;77;21082;-61
2022/06/04 04:20:27;;;;;;;6.12;4.20;;;;;;;17.71;100.00;100335.56;1829679;77;20954;-60
2022/06/04 04:22:54;;;;;;;6.30;3.77;;;;;;;18.25;100.00;100325.66;1828196;78;21546;-60
2022/06/04 04:25:22;;;;;;;6.30;4.20;;;;;;;18.76;100.00;100320.69;1838294;77;20946;-61
2022/06/04 04:27:50;;;;;;;7.22;3.95;;;;;;;19.19;100.00;100312.73;1827897;77;21477;-60
2022/06/04 04:30:20;;;;;;;5.78;3.47;;;;;;;19.63;100.00;100316.00;1829138;78;21005;-60
2022/06/04 04:32:48;;;;;;;5.17;3.87;;;;;;;20.14;100.00;100306.28;1820378;78;20973;-60
2022/06/04 04:35:20;;;;;;;5.60;3.40;;;;;;;20.55;100.00;100307.27;1770341;80;21017;-59
2022/06/04 04:37:47;;;;;;;4.67;3.12;;;;;;;20.88;100.00;100297.92;1769760;80;21694;-59
2022/06/04 04:40:17;;;;;;;6.55;3.10;;;;;;;21.12;100.00;100295.48;1763094;80;20998;-58
2022/06/04 04:42:45;;;;;;;4.20;3.08;;;;;;;21.40;100.00;100297.31;1749120;80;21059;-61
2022/06/04 04:45:11;;;;;;;4.95;2.95;;;;;;;21.61;100.00;100289.31;1751228;81;21027;-61
2022/06/04 04:47:41;;;;;;;3.70;2.62;;;;;;;21.66;100.00;100293.87;1756751;80;21062;-59
2022/06/04 04:50:16;;;;;;;5.05;3.20;;;;;;;21.93;100.00;100281.56;1752645;80;21012;-60
2022/06/04 04:52:44;;;;;;;4.20;2.70;;;;;;;22.14;100.00;100282.42;1752520;80;21585;-58
2022/06/04 04:55:10;;;;;;;7.35;2.98;;;;;;;22.30;100.00;100278.72;1731073;81;20970;-61
2022/06/04 04:57:37;;;;;;;3.98;2.55;;;;;;;22.57;100.00;100271.00;1758207;80;21086;-60
2022/06/04 05:00:06;;;;;;;3.95;2.45;;;;;;;22.63;100.00;100277.42;1750283;81;20958;-59
2022/06/04 05:02:33;;;;;;;4.85;2.30;;;;;;;22.75;100.00;100276.11;1720052;82;21046;-59
2022/06/04 05:05:01;;;;;;;3.50;1.80;;;;;;;22.87;100.00;100281.48;1752942;80;21034;-58
2022/06/04 05:07:28;;;;;;;4.35;1.80;;;;;;;22.97;100.00;100279.09;1758821;80;21064;-58
2022/06/04 05:09:54;;;;;;;3.60;1.70;;;;;;;23.18;100.00;100275.70;1766849;80;21097;-58
2022/06/04 05:12:21;;;;;;;4.25;1.50;;;;;;;23.52;100.00;100274.55;1729141;82;21561;-59
2022/06/04 05:14:48;;;;;;;2.75;1.55;;;;;;;23.86;100.00;100280.82;1758637;80;21090;-59
2022/06/04 05:17:14;;;;;;;2.17;1.45;;;;;;;24.22;100.00;100282.23;1756114;80;21581;-59
2022/06/04 05:19:42;;;;;;;4.80;1.52;;;;;;;24.48;96.90;100279.84;1754435;81;21031;-60
2022/06/04 05:22:09;;;;;;;4.53;1.50;;;;;;;24.48;96.42;100277.67;1734426;81;21089;-60
2022/06/04 05:24:36;;;;;;;3.37;1.67;;;;;;;24.62;93.83;100282.28;1752905;80;21015;-60
2022/06/04 05:27:03;;;;;;;3.60;1.57;;;;;;;24.57;88.27;100283.33;1745285;80;21556;-59
2022/06/04 05:29:31;;;;;;;3.33;1.72;;;;;;;24.16;84.55;100276.69;1739376;80;21476;-59
2022/06/04 05:31:58;;;;;;;2.75;1.60;;;;;;;23.54;89.50;100282.53;1758071;80;21029;-59
2022/06/04 05:34:24;;;;;;;2.55;1.80;;;;;;;22.95;94.62;100280.03;1792161;79;21017;-59
2022/06/04 05:36:51;;;;;;;5.10;1.80;;;;;;;22.44;98.40;100277.07;1766565;80;21448;-58
2022/06/04 05:39:18;;;;;;;3.77;2.15;;;;;;;22.16;100.00;100282.32;1771567;80;21061;-59
2022/06/04 05:41:45;;;;;;;4.75;1.85;;;;;;;22.16;100.00;100280.12;1789368;80;21578;-59
2022/06/04 05:44:11;;;;;;;3.55;1.98;;;;;;;22.10;100.00;100280.90;1761209;81;21006;-59
2022/06/04 05:46:42;;;;;;;3.75;2.12;;;;;;;22.17;100.00;100276.20;1776703;80;21034;-59
2022/06/04 05:49:10;;;;;;;3.60;2.17;;;;;;;22.38;100.00;100278.43;1790357;80;21033;-59
2022/06/04 05:51:38;;;;;;;4.92;2.42;;;;;;;22.46;100.00;100279.52;1822239;79;21512;-59
2022/06/04 05:54:05;;;;;;;4.55;2.47;;;;;;;22.78;100.00;100278.20;1812403;79;20987;-59
2022/06/04 05:56:34;;;;;;;3.62;2.10;;;;;;;23.27;100.00;100275.05;1758206;80;21609;-59
2022/06/04 05:59:04;;;;;;;6.05;2.10;;;;;;;23.88;100.00;100277.91;1766623;80;20959;-60
2022/06/04 06:01:32;;;;;;;3.70;2.02;;;;;;;24.53;100.00;100270.45;1801779;79;21013;-60
2022/06/04 06:03:58;;;;;;;3.45;2.37;;;;;;;25.09;100.00;100273.52;1811964;79;20963;-58
2022/06/04 06:06:28;;;;;;;4.17;2.05;;;;;;;25.69;97.94;100270.16;1809438;79;21528;-59
2022/06/04 06:08:55;;;;;;;6.12;2.37;;;;;;;26.17;93.57;100260.03;1771551;80;21970;-59
2022/06/04 06:11:22;;;;;;;5.20;2.17;;;;;;;26.62;87.91;100258.61;1767801;80;21041;-59
2022/06/04 06:13:50;;;;;;;3.20;2.00;;;;;;;26.95;83.05;100256.16;1769229;80;20959;-61
2022/06/04 06:16:27;;;;;;;4.58;2.40;;;;;;;27.23;81.48;100253.68;1759384;80;20989;-60
2022/06/04 06:18:58;;;;;;;;;;;;;;;27.58;75.85;100252.95;1765976;80;20966;-60
2022/06/04 06:21:25;;;;;;;3.27;1.57;;;;;;;27.89;75.20;100251.27;1758453;81;20401;-60
2022/06/04 06:23:52;;;;;;;2.58;1.40;;;;;;;28.22;74.59;100255.40;1800559;79;21516;-60
2022/06/04 06:26:25;;;;;;;2.10;1.40;;;;;;;28.61;63.72;100248.34;1788122;79;21121;-59
2022/06/04 06:28:52;;;;;;;1.82;1.15;;;;;;;28.69;62.87;100244.48;1770716;80;20911;-60
2022/06/04 06:31:23;;;;;;;2.65;0.90;;;;;;;28.89;64.66;100245.92;1785304;79;21018;-60
2022/06/04 06:33:50;;;;;;;2.47;1.05;;;;;;;29.10;57.64;100232.16;1761738;81;20976;-59
2022/06/04 06:36:18;;;;;;;1.77;0.80;;;;;;;29.19;55.30;100234.66;1787110;80;21034;-60
2022/06/04 06:38:46;;;;;;;3.27;1.17;;;;;;;29.26;52.35;100229.71;1789974;79;21425;-60
2022/06/04 06:41:14;;;;;;;1.30;0.85;;;;;;;29.19;50.80;100236.06;1815994;79;21005;-60
2022/06/04 06:43:50;;;;;;;2.27;0.95;;;;;;;29.11;50.36;100228.17;1786253;79;21069;-60
2022/06/04 06:46:35;;;;;;;2.12;0.90;;;;;;;29.16;51.81;100233.41;1787816;80;20978;-59
2022/06/04 06:49:17;;;;;;;2.92;1.10;;;;;;;29.12;50.39;100231.16;1792544;79;21020;-59
2022/06/04 06:51:49;;;;;;;2.05;0.82;;;;;;;29.14;50.82;100230.20;1790701;79;21017;-58
2022/06/04 06:54:18;;;;;;;1.30;0.80;;;;;;;29.16;52.00;100215.19;1786994;80;20959;-59
2022/06/04 06:56:48;;;;;;;2.25;0.80;;;;;;;29.43;52.57;100217.89;1794867;79;21081;-60
2022/06/04 06:59:14;;;;;;;1.77;0.80;;;;;;;29.71;47.98;100214.52;1795558;79;20951;-59
2022/06/04 07:01:42;;;;;;;2.00;0.90;;;;;;;29.70;47.15;100211.48;1793110;79;21081;-60
2022/06/04 09:15:36;;;;;;;;;;;;;;;28.29;42.80;100112.73;1748643;79;22993;-57
2022/06/04 09:18:21;;;;;;;2.77;0.70;;;;;;;28.15;41.49;100115.58;1716796;83;20117;-58
2022/06/04 09:20:54;;;;;;;3.52;1.50;;;;;;;27.85;41.51;100109.13;1727961;82;21045;-58
2022/06/04 09:23:39;;;;;;;3.10;1.60;;;;;;;27.57;40.57;100109.52;1703378;83;21093;-57
2022/06/04 09:26:28;;;;;;;2.85;1.10;;;;;;;27.24;42.41;100110.78;1720441;83;21045;-58
2022/06/04 09:29:32;;;;;;;2.90;1.85;;;;;;;27.13;41.91;100104.20;1718651;82;21042;-57
2022/06/04 09:32:44;;;;;;;2.52;1.20;;;;;;;27.01;43.01;100107.99;1690104;82;21481;-57
2022/06/04 09:34:58;;;;;;;2.80;1.20;;;;;;;26.52;44.65;100102.28;1712908;82;21056;-59
2022/06/04 09:37:26;;;;;;;4.20;2.98;;;;;;;26.10;45.72;100109.17;1723084;82;20978;-59
2022/06/04 09:40:05;;;;;;;1.75;1.00;;;;;;;26.06;44.24;100111.66;1722420;82;21110;-58
2022/06/04 09:42:32;;;;;;;4.15;1.75;;;;;;;25.93;43.84;100106.82;1728444;82;20994;-57
2022/06/04 09:45:02;;;;;;;1.92;1.10;;;;;;;25.53;45.45;100100.72;1719767;83;21041;-57
2022/06/04 09:47:44;;;;;;;4.20;3.17;;;;;;;25.22;45.09;100106.51;1709988;82;20984;-57
2022/06/04 09:50:34;;;;;;;1.67;1.00;;;;;;;25.06;48.27;100105.72;1709867;82;21052;-59
2022/06/04 09:53:12;;;;;;;2.55;1.00;;;;;;;25.15;46.73;100096.58;1713578;82;21012;-58
2022/06/04 09:55:49;;;;;;;2.10;1.10;;;;;;;25.24;45.80;100090.84;1713388;83;21047;-59
2022/06/04 09:58:32;;;;;;;1.85;1.00;;;;;;;25.22;46.51;100086.23;1714245;83;20967;-58
2022/06/04 10:01:07;;;;;;;2.00;1.07;;;;;;;25.19;46.57;100085.53;1688276;83;21110;-58
2022/06/04 10:06:44;;;;;;;2.02;1.20;;;;;;;24.91;44.71;100081.45;1672557;81;66885;-69
2022/06/04 10:12:05;;;;;;;2.70;0.90;;;;;;;24.52;53.91;100081.79;1637051;86;21490;-66
2022/06/04 10:14:39;;;;;;;4.67;0.95;;;;;;;24.66;53.65;100086.34;1643913;85;21565;-66
2022/06/04 10:17:09;;;;;;;2.90;1.20;;;;;;;24.77;52.25;100073.52;1647569;86;21092;-65
2022/06/04 10:19:36;;;;;;;1.82;1.10;;;;;;;24.81;50.11;100076.39;1646899;85;21043;-63
2022/06/04 10:22:12;;;;;;;3.12;0.95;;;;;;;24.88;54.58;100077.19;1644867;86;21003;-65
2022/06/04 10:24:50;;;;;;;;;;;;;;;24.94;52.15;100061.84;1650798;85;21547;-65
2022/06/04 10:27:35;;;;;;;2.75;1.10;;;;;;;24.92;52.06;100040.50;1646237;86;20614;-65
2022/06/04 10:30:22;;;;;;;1.70;1.00;;;;;;;25.13;53.46;100057.15;1650190;85;21490;-67
2022/06/04 10:33:38;;;;;;;1.30;0.90;;;;;;;25.21;51.20;100054.77;1661228;85;21078;-67
2022/06/04 10:36:13;;;;;;;2.37;1.02;;;;;;;25.20;49.62;100055.93;1685710;84;21102;-66
2022/06/04 10:39:03;;;;;;;4.25;2.85;;;;;;;25.07;50.50;100050.83;1652977;83;21035;-67
2022/06/04 10:41:44;;;;;;;3.40;1.45;;;;;;;25.16;57.12;100052.83;1678539;85;21727;-63
2022/06/04 10:44:34;;;;;;;7.08;4.40;;;;;;;25.34;51.78;100047.67;1668118;84;21055;-67
2022/06/04 10:47:27;;;;;;;5.30;2.75;;;;;;;25.29;53.64;100043.79;1674971;84;21058;-65
2022/06/04 10:50:05;;;;;;;5.15;2.92;;;;;;;25.44;52.82;100043.73;1671913;84;21170;-66
2022/06/04 10:52:43;;;;;;;3.90;1.20;;;;;;;25.51;53.66;100041.14;1682163;85;21047;-65
2022/06/04 10:55:40;;;;;;;2.27;1.15;;;;;;;25.65;51.51;100054.00;1665939;86;21083;-65
2022/06/04 10:58:29;;;;;;;1.57;0.70;;;;;;;25.73;51.56;100040.45;1666118;85;21019;-65
2022/06/04 11:01:30;;;;;;;1.10;0.80;;;;;;;25.72;47.70;100043.59;1666257;85;21629;-65
2022/06/04 11:04:25;;;;;;;4.42;1.82;;;;;;;25.73;48.06;100033.47;1665446;86;21441;-65
2022/06/04 11:07:02;;;;;;;2.40;1.30;;;;;;;25.70;46.63;100039.78;1663044;86;21035;-64
2022/06/04 11:09:35;;;;;;;2.40;1.00;;;;;;;25.61;44.53;100035.60;1659206;86;21043;-64
2022/06/04 11:12:17;;;;;;;2.98;1.92;;;;;;;25.55;44.62;100039.25;1682496;85;21008;-65
2022/06/04 11:14:48;;;;;;;10.43;6.60;;;;;;;25.54;44.51;100030.66;1682257;85;21922;-65
2022/06/04 11:17:29;;;;;;;2.83;1.30;;;;;;;25.58;44.35;100032.12;1682531;85;21011;-64
2022/06/04 11:20:08;;;;;;;2.12;1.05;;;;;;;25.57;46.32;100020.77;1682759;85;21633;-66
2022/06/04 11:22:40;;;;;;;2.62;1.00;;;;;;;25.57;47.02;100025.77;1679262;85;21079;-63
2022/06/04 11:25:27;;;;;;;2.60;1.07;;;;;;;25.47;45.92;100019.92;1681402;84;21473;-65
2022/06/04 11:28:03;;;;;;;1.60;0.90;;;;;;;25.37;46.96;100014.31;1684556;85;21155;-65
2022/06/04 11:31:04;;;;;;;2.05;1.00;;;;;;;25.35;47.27;100014.47;1688099;84;21035;-65
2022/06/04 11:34:10;;;;;;;1.72;0.80;;;;;;;25.27;47.06;100009.31;1652283;84;20983;-65
2022/06/04 11:37:05;;;;;;;3.87;1.00;;;;;;;25.27;45.06;100006.53;1646525;86;21121;-65
2022/06/04 11:40:05;;;;;;;1.67;0.90;;;;;;;25.36;47.92;100009.94;1681427;84;21590;-63
2022/06/04 11:42:43;;;;;;;2.40;1.12;;;;;;;25.48;50.63;100011.19;1683643;85;21696;-64
2022/06/04 11:45:48;;;;;;;2.17;1.12;;;;;;;25.55;45.88;100008.58;1697086;84;21672;-66
2022/06/04 11:48:46;;;;;;;1.65;0.93;;;;;;;25.61;45.01;100000.14;1713284;84;21046;-66
2022/06/04 11:51:49;;;;;;;3.05;1.20;;;;;;;25.63;45.19;99997.00;1713596;84;21071;-64
2022/06/04 11:54:31;;;;;;;1.40;0.95;;;;;;;25.65;47.77;99987.67;1688533;84;21042;-64
2022/06/04 11:57:47;;;;;;;3.58;1.10;;;;;;;25.70;47.54;100001.34;1682976;85;21067;-65
2022/06/04 12:00:31;;;;;;;1.67;1.00;;;;;;;25.61;46.85;99995.18;1651153;85;21114;-65
2022/06/04 12:03:34;;;;;;;2.77;0.90;;;;;;;25.53;49.23;99990.62;1682651;85;21023;-63
2022/06/04 12:06:12;;;;;;;1.12;0.95;;;;;;;25.48;45.68;99988.89;1683048;85;21142;-65
2022/06/04 12:08:44;;;;;;;3.22;0.95;;;;;;;25.34;45.78;99990.55;1688319;85;21028;-65
2022/06/04 12:11:25;;;;;;;2.37;1.07;;;;;;;25.44;46.98;99989.39;1688053;85;21078;-65
2022/06/04 12:14:20;;;;;;;2.37;1.17;;;;;;;25.64;48.59;99988.88;1688151;83;21051;-65
2022/06/04 12:17:10;;;;;;;2.10;0.98;;;;;;;25.84;47.11;99980.72;1687904;85;21138;-65
2022/06/04 12:25:45;;;;;;;1.40;0.95;;;;;;;25.83;43.70;99959.58;1668712;85;21118;-65
2022/06/04 12:28:30;;;;;;;1.75;1.00;;;;;;;25.95;45.80;99958.61;1675085;85;21090;-65
2022/06/04 12:31:00;;;;;;;3.47;1.20;;;;;;;26.16;45.57;99964.59;1686623;84;21097;-63
2022/06/04 12:33:35;;;;;;;16.02;7.42;;;;;;;26.34;44.80;99955.19;1701461;84;20992;-65
2022/06/04 12:36:11;;;;;;;6.85;3.08;;;;;;;26.32;46.18;99947.78;1701687;84;21063;-65
2022/06/04 12:38:40;;;;;;;4.12;1.87;;;;;;;26.16;45.64;99952.05;1674883;85;21022;-66
2022/06/04 12:41:14;;;;;;;1.95;1.10;;;;;;;26.06;44.86;99952.07;1687383;84;21074;-65
2022/06/04 12:43:58;;;;;;;2.40;0.98;;;;;;;25.98;45.87;99945.32;1693977;84;20998;-65
2022/06/04 12:46:30;;;;;;;5.90;4.10;;;;;;;25.95;45.95;99942.69;1709404;84;21478;-66
2022/06/04 12:49:08;;;;;;;9.58;5.53;;;;;;;25.88;46.57;99937.56;1692443;84;21044;-66
2022/06/04 12:51:53;;;;;;;4.55;1.90;;;;;;;25.82;47.04;99930.68;1700919;83;21088;-65
2022/06/04 12:54:44;;;;;;;3.30;1.52;;;;;;;25.85;47.94;99931.33;1701475;83;21056;-65
2022/06/04 12:57:35;;;;;;;6.17;3.55;;;;;;;25.88;46.80;99934.19;1688767;83;21082;-65
2022/06/04 13:00:23;;;;;;;5.62;3.20;;;;;;;25.89;46.44;99923.84;1639544;85;21106;-65
2022/06/04 13:03:12;;;;;;;2.00;1.37;;;;;;;25.89;46.15;99919.66;1650757;84;21062;-68
2022/06/04 13:06:04;;;;;;;2.00;1.22;;;;;;;25.84;46.01;99917.97;1647541;86;21125;-64
2022/06/04 13:08:49;;;;;;;3.58;1.30;;;;;;;25.65;45.09;99913.80;1684105;85;21055;-65
2022/06/04 13:11:54;;;;;;;1.82;1.07;;;;;;;25.39;46.56;99913.06;1697387;84;21626;-65
2022/06/04 13:14:39;;;;;;;2.75;1.20;;;;;;;25.25;45.77;99900.23;1701211;84;21044;-65
2022/06/04 13:17:30;;;;;;;2.27;1.20;;;;;;;25.29;47.41;99902.51;1640749;87;21034;-65
2022/06/04 13:20:12;;;;;;;1.62;1.00;;;;;;;25.39;46.41;99905.28;1681341;84;21088;-65
2022/06/04 13:22:49;;;;;;;3.25;1.00;;;;;;;25.58;48.37;99898.33;1696334;84;21502;-64
2022/06/04 13:25:18;;;;;;;2.20;1.27;;;;;;;25.78;47.37;99903.31;1689900;84;21082;-64
2022/06/04 13:27:50;;;;;;;1.65;1.00;;;;;;;25.84;47.13;99901.24;1666596;84;21086;-64
2022/06/04 13:30:23;;;;;;;1.20;1.00;;;;;;;25.88;46.58;99900.73;1667727;84;21082;-64
2022/06/04 13:32:49;;;;;;;1.70;1.10;;;;;;;25.93;43.68;99896.84;1667537;86;21113;-64
2022/06/04 13:35:21;;;;;;;3.08;1.02;;;;;;;25.78;45.00;99895.76;1666577;86;21605;-64
2022/06/04 13:37:49;;;;;;;1.70;0.93;;;;;;;25.66;47.05;99888.35;1668427;84;21714;-64
2022/06/04 13:40:22;;;;;;;2.40;1.07;;;;;;;25.65;46.91;99890.10;1666974;84;21087;-64
2022/06/04 13:42:49;;;;;;;1.05;0.80;;;;;;;25.71;46.45;99885.86;1667630;85;21082;-64
2022/06/04 13:45:29;;;;;;;2.35;1.10;;;;;;;25.75;45.32;99882.56;1667484;85;21517;-64
2022/06/04 13:48:00;;;;;;;1.82;0.80;;;;;;;25.75;43.84;99879.16;1666046;86;21509;-64
2022/06/04 13:50:30;;;;;;;3.20;0.95;;;;;;;25.79;46.70;99873.64;1667673;85;21038;-64
2022/06/04 13:53:00;;;;;;;1.98;1.00;;;;;;;25.82;45.35;99875.72;1667681;86;21070;-64
2022/06/04 13:55:39;;;;;;;2.65;1.20;;;;;;;25.78;44.66;99870.66;1667665;84;21086;-64
2022/06/04 13:58:23;;;;;;;1.60;1.00;;;;;;;25.72;47.26;99867.94;1669244;84;21054;-65
2022/06/04 14:00:52;;;;;;;3.12;1.25;;;;;;;25.69;44.52;99865.89;1665717;86;21109;-65
2022/06/04 14:03:22;;;;;;;2.80;1.00;;;;;;;25.58;44.99;99862.91;1667484;86;21042;-65
2022/06/04 14:05:51;;;;;;;3.85;1.42;;;;;;;25.48;45.31;99862.66;1673558;84;21518;-65
2022/06/04 14:08:31;;;;;;;3.50;1.17;;;;;;;25.37;46.31;99860.25;1700367;84;21531;-64
2022/06/04 14:11:09;;;;;;;2.15;1.00;;;;;;;25.32;47.96;99864.16;1701799;84;21020;-65
2022/06/04 14:14:10;;;;;;;2.02;1.30;;;;;;;25.32;47.72;99860.56;1701826;84;21035;-65
2022/06/04 14:16:51;;;;;;;3.80;1.27;;;;;;;25.30;46.58;99853.14;1682212;84;21115;-65
2022/06/04 14:19:48;;;;;;;3.20;1.47;;;;;;;25.20;46.81;99855.93;1701600;84;21593;-64
2022/06/04 14:22:33;;;;;;;1.50;1.00;;;;;;;25.10;47.00;99859.30;1701682;84;21433;-65
2022/06/04 14:25:36;;;;;;;2.52;0.90;;;;;;;25.02;48.95;99849.17;1694841;84;21521;-65
2022/06/04 14:28:48;;;;;;;1.95;1.10;;;;;;;25.02;48.95;99849.17;1687408;85;21149;-65
2022/06/04 14:31:33;;;;;;;1.60;1.10;;;;;;;25.03;46.46;99848.02;1674475;84;21553;-65
2022/06/04 14:34:03;;;;;;;2.33;1.12;;;;;;;24.90;45.60;99844.57;1673621;86;21660;-65
2022/06/04 14:36:32;;;;;;;3.27;1.30;;;;;;;24.80;47.80;99841.52;1685857;85;21099;-65
2022/06/04 14:38:58;;;;;;;4.75;2.60;;;;;;;24.66;48.51;99841.98;1659325;85;21092;-65